Time;durP1;ratioP1;P1;durP2;ratioP2;P2;SDS_P1;SDS_P2;PMS_P1;PMS_P2;Temp;Humidity;BMP_temperature;BMP_pressure;BME280_temperature;BME280_humidity;BME280_pressure;Samples;Min_cycle;Max_cycle;Signal;HPM_P1;HPM_P2
2022/09/10 00:01:40;;;;;;;5.40;2.85;;;;;;;14.87;100.00;100810.50;10582453;28;20494;-75
2022/09/10 00:06:41;;;;;;;2.85;2.13;;;;;;;14.89;100.00;100788.44;10569668;28;20042;-75
2022/09/10 00:11:42;;;;;;;3.38;2.20;;;;;;;14.89;100.00;100789.25;10536860;28;20546;-74
2022/09/10 00:16:42;;;;;;;8.27;2.80;;;;;;;14.92;100.00;100782.53;10553291;28;20114;-74
2022/09/10 00:21:45;;;;;;;3.45;3.05;;;;;;;14.92;100.00;100771.63;10570067;28;20070;-75
2022/09/10 00:26:46;;;;;;;2.25;2.10;;;;;;;14.96;100.00;100770.09;10591117;28;20489;-75
2022/09/10 00:31:47;;;;;;;2.03;1.85;;;;;;;14.95;100.00;100787.53;10587191;28;20036;-75
2022/09/10 00:36:48;;;;;;;4.13;2.97;;;;;;;14.95;100.00;100779.34;10568935;28;20471;-75
2022/09/10 00:41:48;;;;;;;8.23;3.38;;;;;;;14.98;100.00;100784.34;10587513;28;20051;-76
2022/09/10 00:46:49;;;;;;;3.83;3.15;;;;;;;15.01;100.00;100777.59;10569343;28;20099;-77
2022/09/10 00:51:50;;;;;;;4.32;3.65;;;;;;;15.05;100.00;100779.63;10570600;28;20035;-77
2022/09/10 00:56:51;;;;;;;7.57;6.88;;;;;;;15.14;100.00;100774.69;10569456;28;20035;-75
2022/09/10 01:01:52;;;;;;;6.53;3.65;;;;;;;15.14;100.00;100752.88;10567825;28;20031;-75
2022/09/10 01:06:52;;;;;;;9.73;4.68;;;;;;;15.12;100.00;100746.78;10586184;28;20028;-75
2022/09/10 01:11:55;;;;;;;11.40;5.20;;;;;;;15.14;100.00;100760.22;10567508;28;20099;-76
2022/09/10 01:17:10;;;;;;;8.30;5.10;;;;;;;15.15;100.00;100756.41;10584801;28;20032;-76
2022/09/10 01:22:22;;;;;;;4.97;3.10;;;;;;;15.18;100.00;100753.22;10568294;28;20020;-75
2022/09/10 01:27:25;;;;;;;7.22;3.70;;;;;;;15.11;100.00;100748.69;10568390;28;20030;-74
2022/09/10 01:32:35;;;;;;;2.88;2.45;;;;;;;15.10;100.00;100744.31;10566544;28;20054;-74
2022/09/10 01:37:37;;;;;;;7.93;2.83;;;;;;;15.11;100.00;100745.16;10567374;28;20454;-74
2022/09/10 01:42:38;;;;;;;5.65;2.75;;;;;;;15.15;100.00;100740.06;10549234;28;20105;-74
2022/09/10 01:48:05;;;;;;;5.78;2.78;;;;;;;15.26;100.00;100742.00;10584256;28;20072;-74
2022/09/10 01:53:29;;;;;;;6.93;3.33;;;;;;;15.29;100.00;100742.38;10567642;28;20126;-75
2022/09/10 01:58:42;;;;;;;4.85;2.55;;;;;;;15.39;100.00;100750.00;10583676;28;20405;-75
2022/09/10 02:03:44;;;;;;;3.03;2.65;;;;;;;15.45;100.00;100754.50;10549038;28;20108;-76
2022/09/10 02:08:45;;;;;;;4.95;3.20;;;;;;;15.42;100.00;100757.72;10548752;28;20032;-76
2022/09/10 02:13:46;;;;;;;3.70;2.28;;;;;;;15.50;100.00;100753.81;10550224;28;20032;-76
2022/09/10 02:18:46;;;;;;;6.45;3.63;;;;;;;15.54;100.00;100749.56;10564993;28;20138;-77
2022/09/10 02:23:51;;;;;;;5.88;2.92;;;;;;;15.56;100.00;100741.94;10574427;28;20085;-78
2022/09/10 02:28:51;;;;;;;6.97;3.90;;;;;;;15.59;100.00;100733.28;10574187;28;20166;-75
2022/09/10 02:33:53;;;;;;;5.20;3.67;;;;;;;15.59;100.00;100731.41;10582978;28;20118;-74
2022/09/10 02:38:57;;;;;;;12.38;3.92;;;;;;;15.65;100.00;100732.34;10582183;28;20028;-74
2022/09/10 02:43:57;;;;;;;11.23;4.82;;;;;;;15.63;100.00;100736.38;10564752;28;20035;-74
2022/09/10 02:48:58;;;;;;;7.60;4.25;;;;;;;15.57;100.00;100744.47;10581743;28;20038;-75
2022/09/10 02:53:58;;;;;;;14.77;4.63;;;;;;;15.52;100.00;100732.56;10583363;28;20047;-75
2022/09/10 02:58:59;;;;;;;15.63;4.13;;;;;;;15.49;100.00;100752.16;10586807;28;20119;-75
2022/09/10 03:03:59;;;;;;;4.10;3.70;;;;;;;15.46;100.00;100739.78;10564908;28;20027;-75
2022/09/10 03:09:01;;;;;;;5.85;3.33;;;;;;;15.39;100.00;100739.06;10563863;28;20038;-75
2022/09/10 03:14:01;;;;;;;10.90;4.22;;;;;;;15.41;100.00;100730.63;10564524;28;20039;-75
2022/09/10 03:19:02;;;;;;;14.20;4.43;;;;;;;15.56;100.00;100744.69;10584319;28;20039;-74
2022/09/10 03:24:03;;;;;;;8.45;4.35;;;;;;;15.51;100.00;100734.47;10568265;28;20534;-75
2022/09/10 03:29:03;;;;;;;5.68;5.18;;;;;;;15.48;100.00;100734.13;10583732;28;20115;-75
2022/09/10 03:34:05;;;;;;;5.88;5.28;;;;;;;15.37;100.00;100735.72;10582032;28;20446;-75
2022/09/10 03:39:05;;;;;;;17.30;5.72;;;;;;;15.30;100.00;100726.81;10566244;28;20118;-75
2022/09/10 03:44:05;;;;;;;18.20;5.72;;;;;;;15.42;100.00;100729.59;10589807;28;20031;-76
2022/09/10 03:49:06;;;;;;;9.60;6.22;;;;;;;15.47;100.00;100733.25;10588436;28;20062;-76
2022/09/10 03:54:06;;;;;;;19.17;5.82;;;;;;;15.45;100.00;100727.22;10589921;28;20066;-75
2022/09/10 03:59:07;;;;;;;7.70;5.45;;;;;;;15.47;100.00;100736.00;10553386;28;20450;-76
2022/09/10 04:04:07;;;;;;;13.38;6.82;;;;;;;15.53;100.00;100729.59;10569631;28;20027;-75
2022/09/10 04:09:07;;;;;;;6.15;5.32;;;;;;;15.53;100.00;100726.88;10588749;28;20379;-75
2022/09/10 04:14:08;;;;;;;13.23;6.70;;;;;;;15.52;100.00;100725.22;10589252;28;20051;-75
2022/09/10 04:19:08;;;;;;;10.93;6.97;;;;;;;15.55;100.00;100735.66;10588416;28;20031;-76
2022/09/10 04:24:12;;;;;;;11.32;6.28;;;;;;;15.67;100.00;100743.91;10588193;28;20421;-76
2022/09/10 04:29:13;;;;;;;11.30;7.43;;;;;;;15.80;100.00;100737.41;10586689;28;20042;-75
2022/09/10 04:34:14;;;;;;;14.10;6.60;;;;;;;15.86;100.00;100749.25;10588184;28;20040;-75
2022/09/10 04:39:15;;;;;;;11.30;6.72;;;;;;;15.90;100.00;100750.47;10586746;28;20146;-75
2022/09/10 04:44:19;;;;;;;9.23;7.45;;;;;;;15.95;100.00;100756.91;10569062;28;20129;-75
2022/09/10 04:49:19;;;;;;;8.50;7.63;;;;;;;16.02;100.00;100757.59;10594680;28;20058;-76
2022/09/10 04:54:19;;;;;;;10.43;6.50;;;;;;;15.94;100.00;100766.13;10592793;28;20111;-76
2022/09/10 04:59:20;;;;;;;13.45;6.40;;;;;;;15.74;100.00;100763.75;10588907;28;20478;-76
2022/09/10 05:04:20;;;;;;;8.65;6.55;;;;;;;15.62;100.00;100772.94;10568766;28;20089;-75
2022/09/10 05:09:21;;;;;;;20.65;7.55;;;;;;;15.54;100.00;100769.50;10585071;28;20055;-76
2022/09/10 05:14:22;;;;;;;13.98;8.13;;;;;;;15.48;100.00;100778.59;10585870;28;20036;-76
2022/09/10 05:19:22;;;;;;;8.55;7.47;;;;;;;15.38;100.00;100777.50;10585624;28;20434;-76
2022/09/10 05:24:22;;;;;;;15.38;7.30;;;;;;;15.29;100.00;100785.19;10584448;28;20043;-77
2022/09/10 05:29:23;;;;;;;11.00;6.65;;;;;;;15.36;100.00;100788.66;10584985;28;20062;-76
2022/09/10 05:34:23;;;;;;;17.77;8.15;;;;;;;15.57;100.00;100792.72;10586158;28;20119;-76
2022/09/10 05:39:24;;;;;;;9.40;7.28;;;;;;;15.65;100.00;100799.78;10584879;28;20048;-76
2022/09/10 05:44:24;;;;;;;8.18;7.43;;;;;;;15.66;100.00;100795.97;10583715;28;20031;-77
2022/09/10 05:49:25;;;;;;;10.15;7.45;;;;;;;15.69;100.00;100796.38;10589077;28;20070;-77
2022/09/10 05:54:25;;;;;;;16.30;8.30;;;;;;;15.74;100.00;100807.44;10587153;28;20038;-77
2022/09/10 05:59:26;;;;;;;7.65;6.07;;;;;;;15.86;100.00;100807.47;10583637;28;20031;-77
2022/09/10 06:04:26;;;;;;;11.70;6.35;;;;;;;16.19;100.00;100812.34;10564940;28;20483;-75
2022/09/10 06:09:27;;;;;;;12.20;6.35;;;;;;;17.72;100.00;100813.91;10584144;28;20032;-76
2022/09/10 06:14:27;;;;;;;5.70;5.22;;;;;;;17.72;100.00;100813.91;10583310;28;20024;-76
2022/09/10 06:19:29;;;;;;;8.85;4.63;;;;;;;17.30;100.00;100822.44;10582908;28;20024;-76
2022/09/10 06:24:29;;;;;;;5.70;3.58;;;;;;;17.16;100.00;100821.88;10583510;28;20031;-76
2022/09/10 06:29:29;;;;;;;4.93;3.20;;;;;;;17.97;100.00;100822.59;10581539;28;20031;-76
2022/09/10 06:34:30;;;;;;;3.53;3.22;;;;;;;17.88;100.00;100835.84;10582539;28;20082;-77
2022/09/10 06:39:31;;;;;;;3.15;2.92;;;;;;;18.15;100.00;100848.88;10564821;28;20055;-75
2022/09/10 06:44:31;;;;;;;5.13;3.20;;;;;;;19.03;100.00;100846.38;10581712;28;20538;-75
2022/09/10 06:49:32;;;;;;;7.50;4.35;;;;;;;18.68;100.00;100858.50;10584683;28;20114;-76
2022/09/10 06:54:32;;;;;;;5.88;2.58;;;;;;;18.73;100.00;100866.84;10581506;28;20066;-77
2022/09/10 06:59:33;;;;;;;6.18;2.53;;;;;;;20.15;100.00;100865.97;10583095;28;20215;-77
2022/09/10 07:04:34;;;;;;;3.40;1.88;;;;;;;20.40;100.00;100863.44;10582650;28;20479;-77
2022/09/10 07:09:34;;;;;;;1.42;1.33;;;;;;;19.48;100.00;100867.22;10581801;28;20474;-76
2022/09/10 07:14:34;;;;;;;1.48;1.13;;;;;;;18.86;100.00;100878.50;10587945;28;20035;-77
2022/09/10 07:19:36;;;;;;;3.53;2.25;;;;;;;19.87;100.00;100881.66;10593647;28;20031;-77
2022/09/10 07:24:36;;;;;;;2.33;1.70;;;;;;;20.94;100.00;100887.19;10580190;28;20040;-76
2022/09/10 07:29:37;;;;;;;2.40;2.25;;;;;;;22.33;100.00;100892.03;10589247;28;20028;-78
2022/09/10 07:34:37;;;;;;;2.80;1.55;;;;;;;22.85;100.00;100899.16;10589596;28;20023;-74
2022/09/10 07:39:38;;;;;;;1.58;1.48;;;;;;;23.13;100.00;100906.00;10589471;28;20048;-83
2022/09/10 07:44:38;;;;;;;4.95;2.50;;;;;;;22.14;100.00;100915.72;10589162;28;20395;-77
2022/09/10 07:49:38;;;;;;;5.65;3.08;;;;;;;21.03;100.00;100928.84;10588717;28;20074;-77
2022/09/10 07:54:39;;;;;;;4.07;3.72;;;;;;;20.39;100.00;100935.22;10590423;28;20074;-77
2022/09/10 07:59:40;;;;;;;7.38;5.78;;;;;;;21.27;100.00;100935.56;10588470;28;20059;-77
2022/09/10 08:04:40;;;;;;;5.40;4.60;;;;;;;22.40;100.00;100956.06;10570523;28;20040;-77
2022/09/10 08:09:42;;;;;;;10.60;7.45;;;;;;;22.92;100.00;100949.38;10588257;28;20028;-75
2022/09/10 08:14:42;;;;;;;14.63;7.43;;;;;;;22.47;100.00;100969.56;10588473;28;20036;-76
2022/09/10 08:19:43;;;;;;;14.73;8.57;;;;;;;22.84;100.00;100985.00;10593356;28;20040;-75
2022/09/10 08:24:43;;;;;;;7.97;7.15;;;;;;;22.92;100.00;100976.19;10588567;28;20370;-75
2022/09/10 08:29:43;;;;;;;13.63;6.60;;;;;;;23.39;100.00;100994.34;10587201;28;20051;-75
2022/09/10 08:34:44;;;;;;;12.23;6.45;;;;;;;22.87;100.00;101003.78;10585906;28;20070;-75
2022/09/10 08:39:44;;;;;;;4.75;3.10;;;;;;;21.58;100.00;101026.66;10586798;28;20108;-74
2022/09/10 08:44:50;;;;;;;3.78;3.17;;;;;;;22.63;100.00;101017.34;10573052;28;20126;-75
2022/09/10 08:49:56;;;;;;;2.27;2.17;;;;;;;22.71;100.00;101030.56;10569490;28;20034;-75
2022/09/10 08:55:05;;;;;;;3.85;3.50;;;;;;;22.69;100.00;101035.56;10551285;28;20098;-74
2022/09/10 09:00:07;;;;;;;3.05;2.83;;;;;;;21.80;100.00;101043.84;10568231;28;20050;-74
2022/09/10 09:05:18;;;;;;;17.48;2.72;;;;;;;22.05;100.00;101043.13;10567448;28;20028;-75
2022/09/10 09:10:24;;;;;;;2.75;2.60;;;;;;;22.77;100.00;101048.78;10585718;28;20032;-81
2022/09/10 09:15:50;;;;;;;16.88;3.55;;;;;;;24.09;100.00;101055.19;10568785;28;20034;-80
2022/09/10 09:20:55;;;;;;;11.40;4.22;;;;;;;23.26;100.00;101075.03;10586728;28;20035;-79
2022/09/10 09:25:57;;;;;;;4.72;4.32;;;;;;;22.46;100.00;101075.53;10569969;28;20471;-76
2022/09/10 09:30:58;;;;;;;5.43;4.90;;;;;;;22.00;100.00;101084.47;10567160;28;20035;-79
2022/09/10 09:36:02;;;;;;;3.22;2.95;;;;;;;22.82;100.00;101084.69;10566733;28;20031;-80
2022/09/10 09:41:11;;;;;;;4.38;3.08;;;;;;;22.83;100.00;101085.53;10584005;28;20051;-80
2022/09/10 09:46:15;;;;;;;2.75;2.53;;;;;;;24.30;100.00;101092.72;10537697;28;20089;-79
2022/09/10 09:51:20;;;;;;;3.00;2.65;;;;;;;25.22;100.00;101097.66;10589411;28;20038;-80
2022/09/10 09:56:23;;;;;;;3.50;2.47;;;;;;;25.96;100.00;101114.94;10566433;28;20034;-80
2022/09/10 10:01:24;;;;;;;6.00;2.50;;;;;;;26.25;100.00;101111.25;10566043;28;20035;-80
2022/09/10 10:06:32;;;;;;;2.63;2.42;;;;;;;26.49;100.00;101105.69;10565441;28;20438;-82
2022/09/10 10:11:46;;;;;;;2.65;2.45;;;;;;;25.54;100.00;101112.88;10582051;28;20126;-76
2022/09/10 10:16:48;;;;;;;5.32;3.10;;;;;;;26.40;100.00;101113.81;10565529;28;20027;-76
2022/09/10 10:21:48;;;;;;;3.25;2.95;;;;;;;27.27;100.00;101108.91;10565696;28;20031;-76
2022/09/10 10:26:48;;;;;;;4.93;3.08;;;;;;;25.61;100.00;101129.16;10582382;28;20359;-76
2022/09/10 10:31:49;;;;;;;3.20;3.00;;;;;;;26.35;100.00;101126.94;10548104;28;20066;-76
2022/09/10 10:36:58;;;;;;;4.05;3.63;;;;;;;27.01;100.00;101133.50;10566199;28;20036;-76
2022/09/10 10:42:04;;;;;;;3.63;3.33;;;;;;;26.30;100.00;101147.28;10583254;28;20441;-75
2022/09/10 10:47:05;;;;;;;;;;;;;;;25.51;100.00;101146.75;10583365;28;20039;-76
2022/09/10 10:52:20;;;;;;;4.10;2.88;;;;;;;26.65;100.00;101146.00;10591584;28;19916;-76
2022/09/10 10:57:32;;;;;;;7.27;2.63;;;;;;;27.47;100.00;101150.28;10591644;28;20479;-76
2022/09/10 11:02:35;;;;;;;2.10;2.00;;;;;;;27.02;100.00;101160.97;10573486;28;20063;-75
2022/09/10 11:07:38;;;;;;;2.58;2.15;;;;;;;26.63;100.00;101176.00;10572110;28;20027;-76
2022/09/10 11:12:47;;;;;;;2.53;2.20;;;;;;;26.67;100.00;101168.75;10590879;28;20032;-75
2022/09/10 11:17:52;;;;;;;2.05;1.70;;;;;;;26.16;100.00;101169.38;10573396;28;20031;-74
2022/09/10 11:23:19;;;;;;;2.40;2.20;;;;;;;26.63;100.00;101162.13;10555080;28;20039;-75
2022/09/10 11:28:21;;;;;;;;;;;;;;;26.57;100.00;101171.66;10581230;28;20046;-75
2022/09/10 11:33:24;;;;;;;3.30;3.10;;;;;;;26.62;100.00;101179.94;10571593;28;19915;-78
2022/09/10 11:38:51;;;;;;;3.00;1.83;;;;;;;27.66;100.00;101182.75;10571467;28;20103;-77
2022/09/10 11:43:54;;;;;;;1.98;1.88;;;;;;;27.76;100.00;101185.34;10544764;28;20097;-78
2022/09/10 11:49:00;;;;;;;2.58;1.70;;;;;;;25.73;100.00;101196.16;10588319;28;20023;-69
2022/09/10 11:54:01;;;;;;;3.20;1.50;;;;;;;26.29;100.00;101187.28;10572600;28;20404;-69
2022/09/10 11:59:07;;;;;;;2.03;1.92;;;;;;;26.14;100.00;101187.44;10553003;28;20119;-69
2022/09/10 12:04:39;;;;;;;1.58;1.42;;;;;;;26.94;100.00;101197.00;10569482;28;20027;-69
2022/09/10 12:09:45;;;;;;;1.85;1.70;;;;;;;27.63;100.00;101205.63;10572536;28;20054;-69
2022/09/10 12:14:46;;;;;;;2.25;2.08;;;;;;;27.13;100.00;101208.94;10589097;28;20034;-69
2022/09/10 12:19:48;;;;;;;1.80;1.73;;;;;;;26.59;100.00;101221.38;10570892;28;20067;-69
2022/09/10 12:25:17;;;;;;;2.08;1.88;;;;;;;26.75;100.00;101213.66;10570091;28;20061;-69
2022/09/10 12:30:23;;;;;;;2.55;2.05;;;;;;;26.40;100.00;101219.34;10570087;28;20111;-69
2022/09/10 12:35:36;;;;;;;4.32;2.78;;;;;;;27.55;100.00;101219.09;10586500;28;20050;-69
2022/09/10 12:40:37;;;;;;;1.25;1.23;;;;;;;25.86;100.00;101220.47;10569694;28;20207;-69
2022/09/10 12:46:11;;;;;;;2.97;1.92;;;;;;;25.60;100.00;101225.41;10585946;28;20071;-69
2022/09/10 12:51:37;;;;;;;2.30;2.10;;;;;;;24.23;100.00;101227.81;10553324;28;20039;-69
2022/09/10 12:56:48;;;;;;;1.40;1.25;;;;;;;24.62;100.00;101238.19;10568678;28;20463;-69
2022/09/10 13:01:50;;;;;;;3.33;2.33;;;;;;;23.59;100.00;101245.00;10551185;28;20023;-68
2022/09/10 13:06:52;;;;;;;4.07;2.10;;;;;;;24.65;100.00;101253.44;10567536;28;20072;-68
2022/09/10 13:11:53;;;;;;;3.30;1.70;;;;;;;23.84;100.00;101252.50;10569056;28;20027;-69
2022/09/10 13:16:54;;;;;;;2.67;2.03;;;;;;;23.15;100.00;101254.63;10550544;28;20386;-68
2022/09/10 13:21:54;;;;;;;3.05;2.38;;;;;;;24.30;100.00;101246.88;10588531;28;20047;-68
2022/09/10 13:27:01;;;;;;;8.27;1.85;;;;;;;25.47;100.00;101251.03;10583863;28;20477;-68
2022/09/10 13:32:08;;;;;;;3.08;2.45;;;;;;;26.21;100.00;101254.53;10567548;28;20028;-68
2022/09/10 13:37:28;;;;;;;5.88;2.47;;;;;;;26.35;100.00;101252.69;10552036;28;20128;-68
2022/09/10 13:42:51;;;;;;;2.83;2.10;;;;;;;26.31;100.00;101250.81;10568121;28;20062;-68
2022/09/10 13:48:01;;;;;;;2.22;2.03;;;;;;;25.98;100.00;101247.84;10568374;28;20032;-69
2022/09/10 13:53:03;;;;;;;3.65;2.60;;;;;;;26.28;100.00;101259.75;10567721;28;20031;-67
2022/09/10 13:58:12;;;;;;;2.53;2.10;;;;;;;26.43;100.00;101265.13;10549727;28;20027;-69
2022/09/10 14:03:15;;;;;;;5.80;2.30;;;;;;;26.53;100.00;101267.81;10549505;28;20088;-69
2022/09/10 14:08:48;;;;;;;2.35;2.15;;;;;;;25.97;100.00;101282.25;10583061;28;20456;-71
2022/09/10 14:13:58;;;;;;;9.73;2.50;;;;;;;24.82;100.00;101279.69;10565339;28;20044;-73
2022/09/10 14:19:00;;;;;;;4.03;2.88;;;;;;;25.03;100.00;101287.88;10582648;28;20043;-73
2022/09/10 14:24:01;;;;;;;5.03;2.47;;;;;;;24.90;100.00;101297.63;10563827;28;20383;-72
2022/09/10 14:29:02;;;;;;;3.28;2.20;;;;;;;23.91;100.00;101300.06;10583345;28;20035;-72
2022/09/10 14:34:29;;;;;;;2.70;2.50;;;;;;;23.45;100.00;101305.53;10530744;28;20464;-72
2022/09/10 14:39:29;;;;;;;;;;;;;;;23.85;100.00;101304.75;10585682;28;20027;-72
2022/09/10 14:44:30;;;;;;;3.83;2.58;;;;;;;23.69;100.00;101316.94;10586155;28;19922;-70
2022/09/10 14:49:32;;;;;;;1.90;1.80;;;;;;;23.14;100.00;101321.22;10564603;28;20043;-71
2022/09/10 14:54:33;;;;;;;2.53;1.98;;;;;;;22.48;100.00;101319.78;10565107;28;20036;-70
2022/09/10 14:59:35;;;;;;;5.18;1.63;;;;;;;21.85;100.00;101323.41;10580685;28;20020;-70
2022/09/10 15:04:37;;;;;;;2.53;2.13;;;;;;;21.57;100.00;101331.72;10547667;28;20073;-71
2022/09/10 15:09:37;;;;;;;5.97;2.83;;;;;;;21.40;100.00;101344.75;10581739;28;20446;-70
2022/09/10 15:14:38;;;;;;;4.30;2.85;;;;;;;21.22;100.00;101345.91;10583528;28;20048;-70
2022/09/10 15:19:38;;;;;;;9.98;2.25;;;;;;;21.02;100.00;101356.69;10581570;28;20035;-70
2022/09/10 15:24:39;;;;;;;5.50;3.35;;;;;;;20.88;100.00;101353.47;10580774;28;20032;-70
2022/09/10 15:29:39;;;;;;;6.10;2.88;;;;;;;20.52;100.00;101357.66;10581961;28;20036;-70
2022/09/10 15:34:39;;;;;;;7.65;4.30;;;;;;;20.33;100.00;101359.81;10580594;28;20042;-70
2022/09/10 15:39:40;;;;;;;4.47;3.70;;;;;;;20.39;100.00;101356.06;10553815;28;20032;-70
2022/09/10 15:44:40;;;;;;;2.60;2.38;;;;;;;20.38;100.00;101368.97;10590492;28;20039;-71
2022/09/10 15:49:41;;;;;;;3.28;2.97;;;;;;;20.29;100.00;101372.38;10593569;28;20035;-71
2022/09/10 15:54:41;;;;;;;3.28;2.97;;;;;;;20.10;100.00;101371.81;10590993;28;20042;-70
2022/09/10 15:59:42;;;;;;;3.40;3.20;;;;;;;20.16;100.00;101371.63;10588524;28;20074;-70
2022/09/10 16:04:42;;;;;;;7.32;2.80;;;;;;;20.23;100.00;101389.88;10587499;28;20039;-70
2022/09/10 16:09:43;;;;;;;8.85;3.80;;;;;;;20.14;100.00;101381.25;10588084;28;20039;-70
2022/09/10 16:14:44;;;;;;;4.28;2.83;;;;;;;19.97;100.00;101394.97;10569007;28;20162;-70
2022/09/10 16:19:44;;;;;;;2.95;2.25;;;;;;;19.87;100.00;101401.09;10570583;28;20066;-70
2022/09/10 16:24:45;;;;;;;5.22;2.80;;;;;;;19.79;100.00;101409.78;10570345;28;20031;-70
2022/09/10 16:29:47;;;;;;;11.98;2.75;;;;;;;19.79;100.00;101409.78;10588570;28;20032;-70
2022/09/10 16:34:47;;;;;;;3.45;3.17;;;;;;;19.68;100.00;101413.38;10586394;28;20039;-70
2022/09/10 16:39:47;;;;;;;4.32;3.17;;;;;;;19.60;100.00;101420.09;10587096;28;20028;-70
2022/09/10 16:44:48;;;;;;;6.10;3.38;;;;;;;19.35;100.00;101427.81;10568469;28;20131;-70
2022/09/10 16:49:48;;;;;;;7.22;2.97;;;;;;;19.21;100.00;101441.81;10567416;28;20059;-70
2022/09/10 16:54:49;;;;;;;4.40;4.00;;;;;;;19.08;100.00;101447.59;10551358;28;20486;-70
2022/09/10 16:59:50;;;;;;;4.97;3.88;;;;;;;19.04;100.00;101441.72;10586313;28;20043;-71
2022/09/10 17:04:54;;;;;;;3.95;3.65;;;;;;;18.98;100.00;101447.34;10570332;28;20379;-71
2022/09/10 17:09:54;;;;;;;3.58;3.28;;;;;;;18.89;100.00;101449.63;10588499;28;20131;-70
2022/09/10 17:14:55;;;;;;;4.85;3.05;;;;;;;18.79;100.00;101458.47;10586140;28;20036;-70
2022/09/10 17:19:55;;;;;;;3.45;3.22;;;;;;;18.71;100.00;101456.03;10566982;28;20122;-70
2022/09/10 17:24:55;;;;;;;4.10;3.70;;;;;;;18.64;100.00;101454.50;10585002;28;20035;-71
2022/09/10 17:29:56;;;;;;;8.45;3.85;;;;;;;18.54;100.00;101466.06;10584701;28;20032;-70
2022/09/10 17:34:56;;;;;;;4.43;3.45;;;;;;;18.44;100.00;101474.88;10584745;28;20036;-70
2022/09/10 17:39:57;;;;;;;3.33;3.08;;;;;;;18.34;100.00;101480.06;10585729;28;20189;-70
2022/09/10 17:44:59;;;;;;;9.13;3.95;;;;;;;18.24;100.00;101483.38;10584107;28;20027;-70
2022/09/10 17:50:00;;;;;;;9.52;4.20;;;;;;;18.15;100.00;101487.50;10582868;28;20035;-70
2022/09/10 17:55:01;;;;;;;4.50;3.63;;;;;;;18.07;100.00;101494.19;10565417;28;20039;-70
2022/09/10 18:00:02;;;;;;;4.65;4.30;;;;;;;17.97;100.00;101495.81;10547770;28;20498;-70
2022/09/10 18:05:04;;;;;;;4.60;3.75;;;;;;;17.89;100.00;101503.28;10583474;28;20398;-70
2022/09/10 18:10:05;;;;;;;4.53;4.15;;;;;;;17.78;100.00;101514.19;10583336;28;20040;-70
2022/09/10 18:15:05;;;;;;;8.77;4.47;;;;;;;17.69;100.00;101510.88;10583394;28;20122;-71
2022/09/10 18:20:06;;;;;;;9.25;5.10;;;;;;;17.61;100.00;101530.34;10583648;28;20039;-71
2022/09/10 18:25:07;;;;;;;18.63;7.50;;;;;;;17.51;100.00;101536.38;10583648;28;20040;-70
2022/09/10 18:30:08;;;;;;;6.22;4.88;;;;;;;17.40;100.00;101551.66;10584366;28;20038;-70
2022/09/10 18:35:09;;;;;;;6.13;5.43;;;;;;;17.31;100.00;101558.50;10584716;28;20056;-70
2022/09/10 18:40:10;;;;;;;4.95;4.57;;;;;;;17.26;100.00;101554.75;10582379;28;20106;-71
2022/09/10 18:45:11;;;;;;;9.07;5.45;;;;;;;17.22;100.00;101564.50;10549021;28;20139;-70
2022/09/10 18:50:12;;;;;;;12.38;6.57;;;;;;;17.14;100.00;101562.91;10564159;28;20155;-70
2022/09/10 18:55:12;;;;;;;9.40;5.20;;;;;;;17.07;100.00;101573.03;10582737;28;20101;-71
2022/09/10 19:00:13;;;;;;;7.30;5.72;;;;;;;16.99;100.00;101587.84;10582967;28;20482;-70
2022/09/10 19:05:14;;;;;;;6.75;5.82;;;;;;;16.95;100.00;101595.69;10559509;28;20066;-70
2022/09/10 19:10:14;;;;;;;5.90;5.38;;;;;;;16.88;100.00;101600.38;10582796;28;20035;-70
2022/09/10 19:15:14;;;;;;;14.15;9.50;;;;;;;16.84;100.00;101592.81;10591196;28;20046;-70
2022/09/10 19:20:15;;;;;;;7.18;6.47;;;;;;;16.86;100.00;101602.47;10590519;28;20038;-70
2022/09/10 19:25:15;;;;;;;16.85;7.00;;;;;;;16.82;100.00;101609.47;10572358;28;20046;-70
2022/09/10 19:30:16;;;;;;;9.65;5.50;;;;;;;16.77;100.00;101609.28;10589301;28;20436;-71
2022/09/10 19:35:16;;;;;;;31.05;19.05;;;;;;;16.68;100.00;101614.13;10592315;28;20118;-70
2022/09/10 19:40:16;;;;;;;12.18;8.07;;;;;;;16.68;100.00;101616.03;10592709;28;20047;-70
2022/09/10 19:45:17;;;;;;;8.98;7.90;;;;;;;16.65;100.00;101622.78;10589985;28;20477;-70
2022/09/10 19:50:17;;;;;;;21.42;8.77;;;;;;;16.63;100.00;101632.28;10571198;28;20039;-70
2022/09/10 19:55:18;;;;;;;10.13;8.15;;;;;;;16.58;100.00;101621.16;10588221;28;20024;-71
2022/09/10 20:00:19;;;;;;;10.07;9.02;;;;;;;16.62;100.00;101636.88;10570383;28;20035;-71
2022/09/10 20:05:19;;;;;;;21.95;11.18;;;;;;;16.58;100.00;101637.56;10588470;28;20493;-71
2022/09/10 20:10:19;;;;;;;15.07;9.32;;;;;;;16.50;100.00;101638.66;10570048;28;20035;-70
2022/09/10 20:15:20;;;;;;;11.93;8.27;;;;;;;16.47;100.00;101647.31;10587454;28;20043;-70
2022/09/10 20:20:20;;;;;;;14.60;10.07;;;;;;;16.48;100.00;101644.34;10587810;28;20411;-70
2022/09/10 20:25:21;;;;;;;10.77;8.98;;;;;;;16.46;100.00;101646.47;10569711;28;20040;-71
2022/09/10 20:30:21;;;;;;;9.73;8.73;;;;;;;16.40;100.00;101661.00;10586807;28;20055;-70
2022/09/10 20:35:21;;;;;;;9.95;8.63;;;;;;;16.36;100.00;101669.84;10586772;28;20043;-70
2022/09/10 20:40:22;;;;;;;9.50;8.52;;;;;;;16.40;100.00;101666.47;10586324;28;20056;-70
2022/09/10 20:45:23;;;;;;;18.30;10.05;;;;;;;16.52;100.00;101670.19;10588597;28;20035;-71
2022/09/10 20:50:23;;;;;;;11.52;9.80;;;;;;;16.71;100.00;101676.59;10591943;28;20047;-71
2022/09/10 20:55:24;;;;;;;10.43;8.93;;;;;;;16.80;100.00;101685.41;10586831;28;20047;-71
2022/09/10 21:00:24;;;;;;;7.75;7.05;;;;;;;16.73;100.00;101681.88;10567901;28;20040;-70
2022/09/10 21:05:24;;;;;;;18.60;9.93;;;;;;;16.77;100.00;101680.38;10584963;28;20035;-70
2022/09/10 21:10:25;;;;;;;25.23;14.32;;;;;;;16.87;100.00;101688.13;10585001;28;20036;-71
2022/09/10 21:15:25;;;;;;;17.25;12.73;;;;;;;17.04;100.00;101682.94;10586548;28;20034;-70
2022/09/10 21:20:25;;;;;;;13.85;6.93;;;;;;;17.06;100.00;101684.41;10585404;28;20431;-71
2022/09/10 21:25:26;;;;;;;10.52;8.65;;;;;;;16.90;100.00;101693.16;10584628;28;20043;-71
2022/09/10 21:30:27;;;;;;;8.48;7.30;;;;;;;16.68;100.00;101689.88;10586097;28;20081;-72
2022/09/10 21:35:28;;;;;;;9.55;6.65;;;;;;;16.52;100.00;101683.00;10584404;28;20040;-72
2022/09/10 21:40:29;;;;;;;11.75;7.55;;;;;;;16.34;100.00;101683.75;10584348;28;20415;-73
2022/09/10 21:45:30;;;;;;;22.05;12.05;;;;;;;16.23;100.00;101689.88;10585007;28;20043;-71
2022/09/10 21:50:32;;;;;;;13.23;10.23;;;;;;;16.06;100.00;101696.88;10583916;28;20058;-71
2022/09/10 21:55:33;;;;;;;13.63;10.18;;;;;;;15.96;100.00;101709.09;10584603;28;20040;-72
2022/09/10 22:00:34;;;;;;;14.07;9.20;;;;;;;15.88;100.00;101703.00;10585770;28;20031;-72
2022/09/10 22:05:35;;;;;;;15.05;10.82;;;;;;;15.77;100.00;101705.34;10586474;28;20056;-72
2022/09/10 22:10:39;;;;;;;26.60;14.48;;;;;;;15.70;100.00;101720.88;10584296;28;20118;-72
2022/09/10 22:15:40;;;;;;;22.80;15.23;;;;;;;15.58;100.00;101728.84;10583527;28;20451;-71
2022/09/10 22:20:41;;;;;;;39.67;21.33;;;;;;;15.54;100.00;101732.22;10582562;28;20035;-72
2022/09/10 22:25:41;;;;;;;16.73;10.63;;;;;;;15.55;100.00;101745.63;10583330;28;20383;-71
2022/09/10 22:30:41;;;;;;;18.33;13.13;;;;;;;15.53;100.00;101741.44;10582926;28;20039;-71
2022/09/10 22:35:42;;;;;;;16.60;13.23;;;;;;;15.46;100.00;101744.16;10584044;28;20039;-71
2022/09/10 22:40:42;;;;;;;15.80;11.38;;;;;;;15.47;100.00;101743.09;10565441;28;20129;-71
2022/09/10 22:45:42;;;;;;;16.70;13.00;;;;;;;15.48;100.00;101741.25;10581494;28;20035;-71
2022/09/10 22:50:43;;;;;;;23.83;15.10;;;;;;;15.49;100.00;101751.09;10565055;28;20036;-71